Time;durP1;ratioP1;P1;durP2;ratioP2;P2;SDS_P1;SDS_P2;PMS_P1;PMS_P2;Temp;Humidity;BMP_temperature;BMP_pressure;BME280_temperature;BME280_humidity;BME280_pressure;Samples;Min_cycle;Max_cycle;Signal;HPM_P1;HPM_P2
2021/04/22 00:01:45;;;;;;;11.15;8.23;;;;;;;;;;6080643;29;20040;-72
2021/04/22 00:04:47;;;;;;;10.85;8.45;;;;;;;;;;6083251;29;20139;-73
2021/04/22 00:07:49;;;;;;;9.43;7.97;;;;;;;;;;6084711;29;20088;-72
2021/04/22 00:10:51;;;;;;;12.00;8.98;;;;;;;;;;6082920;29;20083;-72
2021/04/22 00:13:53;;;;;;;11.93;9.60;;;;;;;;;;6085961;29;20139;-72
2021/04/22 00:16:54;;;;;;;10.82;9.13;;;;;;;;;;6080171;29;20131;-73
2021/04/22 00:19:55;;;;;;;12.50;9.50;;;;;;;;;;6090518;29;20054;-74
2021/04/22 00:22:57;;;;;;;11.55;10.20;;;;;;;;;;6090585;29;20040;-75
2021/04/22 00:25:58;;;;;;;11.50;10.23;;;;;;;;;;6089366;29;20123;-73
2021/04/22 00:28:59;;;;;;;12.52;10.98;;;;;;;;;;6096862;29;20134;-72
2021/04/22 00:32:00;;;;;;;15.73;12.15;;;;;;;;;;6092974;29;20052;-70
2021/04/22 00:35:02;;;;;;;14.95;11.57;;;;;;;;;;6091553;29;20051;-71
2021/04/22 00:38:04;;;;;;;13.55;11.55;;;;;;;;;;6090819;29;20128;-71
2021/04/22 00:41:05;;;;;;;14.90;12.60;;;;;;;;;;6094699;29;20622;-71
2021/04/22 00:44:08;;;;;;;15.73;13.45;;;;;;;;;;6074169;29;20076;-70
2021/04/22 00:47:09;;;;;;;14.95;13.27;;;;;;;;;;6090830;29;20403;-71
2021/04/22 00:50:15;;;;;;;14.70;12.70;;;;;;;;;;6093489;29;20504;-70
2021/04/22 00:53:16;;;;;;;15.18;13.57;;;;;;;;;;6092452;29;20112;-69
2021/04/22 00:56:17;;;;;;;14.77;13.10;;;;;;;;;;6091560;29;20408;-70
2021/04/22 00:59:18;;;;;;;15.30;13.10;;;;;;;;;;6090934;29;20415;-69
2021/04/22 01:02:20;;;;;;;14.65;12.45;;;;;;;;;;6096060;29;20143;-69
2021/04/22 01:05:23;;;;;;;16.38;13.23;;;;;;;;;;6113877;24;20127;-74
2021/04/22 01:08:24;;;;;;;16.40;13.45;;;;;;;;;;6105899;29;20468;-72
2021/04/22 01:11:29;;;;;;;15.02;12.57;;;;;;;;;;6106600;29;20044;-73
2021/04/22 01:14:30;;;;;;;14.25;12.75;;;;;;;;;;6106250;29;20078;-72
2021/04/22 01:17:33;;;;;;;13.20;11.77;;;;;;;;;;6106546;29;20135;-71
2021/04/22 01:20:38;;;;;;;13.30;11.90;;;;;;;;;;6106414;29;20416;-73
2021/04/22 01:23:40;;;;;;;13.75;11.18;;;;;;;;;;6105835;29;20048;-73
2021/04/22 01:26:41;;;;;;;12.77;11.48;;;;;;;;;;6105591;29;20135;-73
2021/04/22 01:29:42;;;;;;;12.98;11.05;;;;;;;;;;6105789;29;20131;-72
2021/04/22 01:32:44;;;;;;;15.05;12.13;;;;;;;;;;6104459;29;20062;-72
2021/04/22 01:35:48;;;;;;;12.65;11.35;;;;;;;;;;6105729;29;20126;-72
2021/04/22 01:38:50;;;;;;;14.20;11.95;;;;;;;;;;6105411;29;20122;-73
2021/04/22 01:41:51;;;;;;;12.80;11.23;;;;;;;;;;6105429;29;20131;-71
2021/04/22 01:44:52;;;;;;;14.30;12.77;;;;;;;;;;6105609;29;20127;-71
2021/04/22 01:47:54;;;;;;;14.48;11.73;;;;;;;;;;6104498;29;20051;-71
2021/04/22 01:50:55;;;;;;;14.55;12.63;;;;;;;;;;6104665;29;20152;-72
2021/04/22 01:53:57;;;;;;;16.58;12.40;;;;;;;;;;6105072;29;20075;-71
2021/04/22 01:56:58;;;;;;;16.45;13.25;;;;;;;;;;6104196;29;20043;-71
2021/04/22 01:59:59;;;;;;;16.45;13.40;;;;;;;;;;6104387;29;20149;-72
2021/04/22 02:03:00;;;;;;;14.57;12.93;;;;;;;;;;6095765;29;20084;-72
2021/04/22 02:06:03;;;;;;;15.88;13.27;;;;;;;;;;6092732;29;20483;-74
2021/04/22 02:09:05;;;;;;;17.70;14.07;;;;;;;;;;6089557;29;20901;-72
2021/04/22 02:12:08;;;;;;;16.67;13.85;;;;;;;;;;6094095;29;20103;-73
2021/04/22 02:15:11;;;;;;;17.80;14.82;;;;;;;;;;6088181;29;20173;-74
2021/04/22 02:18:12;;;;;;;20.48;13.52;;;;;;;;;;6086305;29;20087;-72
2021/04/22 02:21:13;;;;;;;16.05;14.10;;;;;;;;;;6082465;29;20568;-72
2021/04/22 02:24:16;;;;;;;16.55;13.80;;;;;;;;;;6088327;29;20130;-73
2021/04/22 02:27:17;;;;;;;18.30;13.70;;;;;;;;;;6089940;29;20059;-74
2021/04/22 02:30:21;;;;;;;16.58;13.68;;;;;;;;;;6080684;29;20041;-73
2021/04/22 02:33:22;;;;;;;16.13;14.45;;;;;;;;;;6077252;29;20048;-72
2021/04/22 02:36:23;;;;;;;15.45;13.77;;;;;;;;;;6088413;29;20056;-73
2021/04/22 02:39:25;;;;;;;17.17;14.52;;;;;;;;;;6086158;29;20079;-72
2021/04/22 02:42:26;;;;;;;16.60;14.40;;;;;;;;;;6087263;29;20066;-73
2021/04/22 02:45:30;;;;;;;15.57;13.88;;;;;;;;;;6084446;29;20108;-72
2021/04/22 02:48:31;;;;;;;16.95;13.18;;;;;;;;;;6090444;29;20058;-72
2021/04/22 02:51:32;;;;;;;17.52;13.82;;;;;;;;;;6095651;29;20060;-72
2021/04/22 02:54:34;;;;;;;21.88;15.90;;;;;;;;;;6085201;29;20063;-73
2021/04/22 02:57:35;;;;;;;19.83;14.98;;;;;;;;;;6089353;29;22068;-72
2021/04/22 03:00:36;;;;;;;19.90;15.57;;;;;;;;;;6085865;29;20152;-72
2021/04/22 03:03:37;;;;;;;18.77;15.80;;;;;;;;;;6091579;29;20064;-72
2021/04/22 03:06:38;;;;;;;23.42;15.98;;;;;;;;;;6093999;29;20048;-72
2021/04/22 03:09:40;;;;;;;21.35;16.40;;;;;;;;;;6094311;29;20052;-73
2021/04/22 03:12:41;;;;;;;18.00;15.73;;;;;;;;;;6089477;29;20064;-73
2021/04/22 03:15:43;;;;;;;21.35;16.40;;;;;;;;;;6091086;29;20048;-72
2021/04/22 03:18:44;;;;;;;20.25;17.35;;;;;;;;;;6087955;29;20047;-72
2021/04/22 03:21:45;;;;;;;19.35;16.13;;;;;;;;;;6086645;29;20048;-72
2021/04/22 03:24:47;;;;;;;19.63;17.15;;;;;;;;;;6085532;29;20056;-73
2021/04/22 03:27:48;;;;;;;20.33;16.50;;;;;;;;;;6087879;29;20045;-74
2021/04/22 03:30:49;;;;;;;19.55;16.10;;;;;;;;;;6094324;29;20822;-72
2021/04/22 03:33:50;;;;;;;20.40;17.05;;;;;;;;;;6094685;29;20056;-73
2021/04/22 03:36:51;;;;;;;19.10;16.42;;;;;;;;;;6087740;29;20447;-74
2021/04/22 03:39:53;;;;;;;21.58;16.85;;;;;;;;;;6092488;29;20044;-74
2021/04/22 03:42:55;;;;;;;22.52;17.52;;;;;;;;;;6081265;29;20056;-72
2021/04/22 03:45:56;;;;;;;20.20;16.70;;;;;;;;;;6080621;29;20176;-72
2021/04/22 03:48:57;;;;;;;22.58;17.70;;;;;;;;;;6081578;29;20127;-72
2021/04/22 03:51:58;;;;;;;20.83;17.52;;;;;;;;;;6089709;29;20483;-73
2021/04/22 03:55:00;;;;;;;23.95;18.98;;;;;;;;;;6094949;29;20135;-72
2021/04/22 03:58:01;;;;;;;22.75;19.17;;;;;;;;;;6088193;29;20140;-73
2021/04/22 04:01:02;;;;;;;25.35;18.65;;;;;;;;;;6094363;29;20499;-72
2021/04/22 04:04:04;;;;;;;28.70;19.77;;;;;;;;;;6088891;29;20080;-72
2021/04/22 04:07:05;;;;;;;24.70;20.83;;;;;;;;;;6092493;29;20074;-73
2021/04/22 04:10:09;;;;;;;23.55;19.73;;;;;;;;;;6096855;29;20044;-72
2021/04/22 04:13:10;;;;;;;23.25;19.85;;;;;;;;;;6094739;29;20467;-72
2021/04/22 04:16:11;;;;;;;25.10;20.75;;;;;;;;;;6095915;29;20048;-72
2021/04/22 04:19:12;;;;;;;29.80;21.65;;;;;;;;;;6092591;29;20078;-72
2021/04/22 04:22:13;;;;;;;29.00;22.00;;;;;;;;;;6099258;29;20200;-71
2021/04/22 04:25:16;;;;;;;28.40;22.38;;;;;;;;;;6090594;29;20093;-72
2021/04/22 04:28:17;;;;;;;26.92;22.13;;;;;;;;;;6096173;29;20139;-72
2021/04/22 04:31:19;;;;;;;27.35;21.65;;;;;;;;;;6094822;29;20056;-72
2021/04/22 04:34:20;;;;;;;27.40;22.35;;;;;;;;;;6092873;29;20061;-73
2021/04/22 04:37:21;;;;;;;25.35;20.50;;;;;;;;;;6091588;29;20131;-72
2021/04/22 04:40:23;;;;;;;22.80;19.08;;;;;;;;;;6085326;29;20048;-74
2021/04/22 04:43:24;;;;;;;24.35;19.35;;;;;;;;;;6081935;29;20047;-73
2021/04/22 04:46:25;;;;;;;25.13;19.80;;;;;;;;;;6081388;29;20184;-73
2021/04/22 04:49:26;;;;;;;23.60;17.42;;;;;;;;;;6087153;29;20393;-76
2021/04/22 04:52:27;;;;;;;25.13;17.25;;;;;;;;;;6080958;29;20143;-74
2021/04/22 04:55:29;;;;;;;24.48;16.60;;;;;;;;;;6078615;29;20667;-72
2021/04/22 04:58:30;;;;;;;23.90;14.85;;;;;;;;;;6085017;29;20066;-72
2021/04/22 05:01:31;;;;;;;17.35;12.73;;;;;;;;;;6082697;29;20064;-72
2021/04/22 05:04:33;;;;;;;14.43;12.02;;;;;;;;;;6081010;29;20070;-73
2021/04/22 05:07:34;;;;;;;14.88;11.48;;;;;;;;;;6090141;29;20063;-72
2021/04/22 05:10:36;;;;;;;14.25;11.25;;;;;;;;;;6093431;29;20048;-71
2021/04/22 05:13:37;;;;;;;13.95;10.48;;;;;;;;;;6095649;29;20500;-70
2021/04/22 05:16:38;;;;;;;16.05;11.23;;;;;;;;;;6100016;29;20068;-71
2021/04/22 05:19:39;;;;;;;16.42;10.75;;;;;;;;;;6095641;29;20482;-72
2021/04/22 05:22:41;;;;;;;17.25;10.98;;;;;;;;;;6097636;29;20446;-74
2021/04/22 05:25:42;;;;;;;13.43;10.65;;;;;;;;;;6097451;29;20826;-72
2021/04/22 05:28:43;;;;;;;18.35;10.90;;;;;;;;;;6085028;29;20085;-73
2021/04/22 05:31:45;;;;;;;14.85;9.75;;;;;;;;;;6089970;29;20079;-73
2021/04/22 05:34:46;;;;;;;14.38;10.38;;;;;;;;;;6087075;29;20059;-76
2021/04/22 05:37:47;;;;;;;13.88;11.07;;;;;;;;;;6082580;29;20054;-74
2021/04/22 05:40:49;;;;;;;13.07;9.40;;;;;;;;;;6073894;29;20075;-74
2021/04/22 05:43:50;;;;;;;13.68;10.27;;;;;;;;;;6085968;29;20955;-73
2021/04/22 05:46:51;;;;;;;15.48;9.82;;;;;;;;;;6089795;29;20063;-73
2021/04/22 05:49:52;;;;;;;15.02;10.55;;;;;;;;;;6097423;29;20134;-74
2021/04/22 05:52:53;;;;;;;19.67;11.13;;;;;;;;;;6097350;29;20568;-74
2021/04/22 05:55:55;;;;;;;15.10;11.07;;;;;;;;;;6089951;29;20444;-75
2021/04/22 05:58:56;;;;;;;16.63;11.70;;;;;;;;;;6080091;29;20086;-77
2021/04/22 06:01:57;;;;;;;15.15;12.13;;;;;;;;;;6087207;29;20084;-74
2021/04/22 06:04:58;;;;;;;17.58;12.55;;;;;;;;;;6077849;29;20044;-75
2021/04/22 06:07:59;;;;;;;16.27;13.68;;;;;;;;;;6079619;29;20051;-74
2021/04/22 06:11:01;;;;;;;19.20;13.35;;;;;;;;;;6078817;29;20099;-74
2021/04/22 06:14:03;;;;;;;20.40;14.20;;;;;;;;;;6082985;29;20056;-76
2021/04/22 06:17:04;;;;;;;22.70;14.40;;;;;;;;;;6088547;29;20040;-75
2021/04/22 06:20:08;;;;;;;22.90;14.70;;;;;;;;;;6090733;29;20070;-74
2021/04/22 06:23:09;;;;;;;20.08;14.68;;;;;;;;;;6093395;29;20414;-76
2021/04/22 06:26:11;;;;;;;20.05;15.52;;;;;;;;;;6094969;29;20048;-76
2021/04/22 06:29:12;;;;;;;22.10;15.40;;;;;;;;;;6086034;29;20167;-77
2021/04/22 06:32:13;;;;;;;24.40;15.98;;;;;;;;;;6080508;29;20075;-76
2021/04/22 06:35:15;;;;;;;22.10;17.48;;;;;;;;;;6080161;29;20138;-76
2021/04/22 06:38:16;;;;;;;27.05;17.88;;;;;;;;;;6087970;29;20126;-77
2021/04/22 06:41:18;;;;;;;29.27;19.13;;;;;;;;;;6093214;29;20103;-75
2021/04/22 06:44:19;;;;;;;24.58;19.70;;;;;;;;;;6097465;29;20090;-77
2021/04/22 06:47:20;;;;;;;28.85;20.38;;;;;;;;;;6096050;29;20144;-76
2021/04/22 06:50:25;;;;;;;26.17;19.35;;;;;;;;;;6097365;29;20113;-75
2021/04/22 06:53:26;;;;;;;24.08;18.85;;;;;;;;;;6095344;29;20155;-75
2021/04/22 06:56:28;;;;;;;23.58;18.83;;;;;;;;;;6095386;29;20088;-76
2021/04/22 06:59:29;;;;;;;25.65;19.38;;;;;;;;;;6091926;29;20139;-75
2021/04/22 07:02:30;;;;;;;32.92;20.20;;;;;;;;;;6084227;29;20475;-75
2021/04/22 07:05:31;;;;;;;25.48;20.40;;;;;;;;;;6086078;29;20870;-76
2021/04/22 07:08:33;;;;;;;28.02;20.63;;;;;;;;;;6086724;29;20047;-76
2021/04/22 07:11:35;;;;;;;28.60;21.42;;;;;;;;;;6086783;29;20576;-77
2021/04/22 07:14:36;;;;;;;31.70;22.50;;;;;;;;;;6089054;29;20067;-75
2021/04/22 07:17:37;;;;;;;24.45;20.15;;;;;;;;;;6094345;29;20080;-75
2021/04/22 07:20:39;;;;;;;28.67;22.15;;;;;;;;;;6087294;29;20154;-75
2021/04/22 07:23:40;;;;;;;25.92;18.73;;;;;;;;;;6083231;29;20064;-75
2021/04/22 07:26:42;;;;;;;31.40;21.10;;;;;;;;;;6082976;29;20156;-74
2021/04/22 07:29:45;;;;;;;31.10;21.00;;;;;;;;;;6094138;29;20144;-75
2021/04/22 07:32:46;;;;;;;24.10;19.90;;;;;;;;;;6087195;29;20111;-76
2021/04/22 07:35:47;;;;;;;23.70;19.80;;;;;;;;;;6083044;29;20144;-75
2021/04/22 07:38:48;;;;;;;23.38;19.77;;;;;;;;;;6081141;29;20132;-76
2021/04/22 07:41:50;;;;;;;24.40;19.58;;;;;;;;;;6083488;29;20143;-75
2021/04/22 07:44:51;;;;;;;26.23;20.60;;;;;;;;;;6087015;29;20535;-75
2021/04/22 07:47:52;;;;;;;24.35;20.50;;;;;;;;;;6091613;29;20048;-73
2021/04/22 07:50:53;;;;;;;24.40;21.02;;;;;;;;;;6087691;29;20143;-74
2021/04/22 07:53:54;;;;;;;25.02;21.10;;;;;;;;;;6090141;29;20145;-72
2021/04/22 07:56:56;;;;;;;26.25;21.63;;;;;;;;;;6089958;29;20051;-72
2021/04/22 07:59:57;;;;;;;27.50;21.52;;;;;;;;;;6091994;29;20044;-74
2021/04/22 08:02:59;;;;;;;24.45;21.65;;;;;;;;;;6085478;29;20062;-72
2021/04/22 08:06:00;;;;;;;26.25;20.38;;;;;;;;;;6081037;29;20124;-73
2021/04/22 08:09:01;;;;;;;26.90;22.85;;;;;;;;;;6082727;29;20132;-73
2021/04/22 08:12:06;;;;;;;25.42;20.77;;;;;;;;;;6078525;29;20188;-72
2021/04/22 08:15:10;;;;;;;25.45;21.50;;;;;;;;;;6087008;29;20063;-73
2021/04/22 08:18:11;;;;;;;24.92;21.02;;;;;;;;;;6084417;29;20143;-73
2021/04/22 08:21:13;;;;;;;25.52;20.95;;;;;;;;;;6092480;29;20451;-73
2021/04/22 08:24:14;;;;;;;25.58;21.10;;;;;;;;;;6095222;29;20168;-73
2021/04/22 08:27:16;;;;;;;23.60;21.05;;;;;;;;;;6090916;29;20072;-73
2021/04/22 08:30:23;;;;;;;22.40;20.00;;;;;;;;;;6097531;29;20048;-72
2021/04/22 08:33:26;;;;;;;28.13;21.38;;;;;;;;;;6084309;29;20139;-71
2021/04/22 08:36:27;;;;;;;24.10;20.10;;;;;;;;;;6092113;29;20404;-72
2021/04/22 08:39:28;;;;;;;24.70;20.33;;;;;;;;;;6088451;29;20758;-73
2021/04/22 08:42:31;;;;;;;22.00;19.50;;;;;;;;;;6093629;29;20179;-70
2021/04/22 08:45:32;;;;;;;23.30;20.63;;;;;;;;;;6087693;29;20131;-73
2021/04/22 08:48:33;;;;;;;27.10;21.23;;;;;;;;;;6091161;29;20843;-72
2021/04/22 08:51:35;;;;;;;24.10;21.10;;;;;;;;;;6082313;29;20132;-73
2021/04/22 08:54:36;;;;;;;24.23;20.10;;;;;;;;;;6093776;29;20143;-72
2021/04/22 08:57:38;;;;;;;24.23;20.73;;;;;;;;;;6093965;29;20147;-73
2021/04/22 09:00:42;;;;;;;22.45;19.00;;;;;;;;;;6091790;29;20115;-75
2021/04/22 09:03:45;;;;;;;23.90;21.10;;;;;;;;;;6096339;29;20151;-76
2021/04/22 09:06:46;;;;;;;23.25;20.45;;;;;;;;;;6096859;29;20067;-77
2021/04/22 09:09:47;;;;;;;23.85;21.30;;;;;;;;;;6093991;29;20078;-77
2021/04/22 09:13:05;;;;;;;23.98;21.58;;;;;;;;;;6082128;29;20131;-78
2021/04/22 09:16:10;;;;;;;21.88;19.65;;;;;;;;;;6093690;29;20145;-77
2021/04/22 09:19:13;;;;;;;23.77;20.77;;;;;;;;;;6096174;29;20052;-78
2021/04/22 09:22:14;;;;;;;23.17;20.77;;;;;;;;;;6096667;29;20219;-77
2021/04/22 09:25:19;;;;;;;22.92;19.85;;;;;;;;;;6096388;29;20483;-76
2021/04/22 09:28:22;;;;;;;23.58;19.17;;;;;;;;;;6093810;29;20134;-76
2021/04/22 09:31:29;;;;;;;22.20;19.80;;;;;;;;;;6090552;29;20776;-77
2021/04/22 09:34:31;;;;;;;22.58;19.77;;;;;;;;;;6089743;29;20412;-76
2021/04/22 09:37:38;;;;;;;22.40;20.15;;;;;;;;;;6092062;29;20147;-76
2021/04/22 09:40:41;;;;;;;24.17;19.83;;;;;;;;;;6088736;29;20119;-77
2021/04/22 09:43:44;;;;;;;22.85;20.42;;;;;;;;;;6084835;29;20131;-77
2021/04/22 09:46:48;;;;;;;22.08;19.98;;;;;;;;;;6088081;29;20080;-76
2021/04/22 09:49:51;;;;;;;;;;;;;;;;;;6093797;29;20111;-76
2021/04/22 09:52:55;;;;;;;22.40;20.23;;;;;;;;;;6071238;29;19963;-77
2021/04/22 09:55:58;;;;;;;20.45;18.25;;;;;;;;;;6088850;29;20506;-76
2021/04/22 09:59:05;;;;;;;22.75;18.40;;;;;;;;;;6089821;29;20063;-78
2021/04/22 10:02:08;;;;;;;20.42;18.42;;;;;;;;;;6082315;29;20056;-77
2021/04/22 10:05:16;;;;;;;18.03;16.27;;;;;;;;;;6082723;29;20175;-80
2021/04/22 10:08:18;;;;;;;20.83;18.83;;;;;;;;;;6086830;29;20056;-78
2021/04/22 10:11:19;;;;;;;21.13;19.13;;;;;;;;;;6089724;29;20084;-78
2021/04/22 10:14:32;;;;;;;19.73;17.67;;;;;;;;;;6091746;29;20166;-77
2021/04/22 10:17:35;;;;;;;20.88;18.77;;;;;;;;;;6088079;29;20172;-77
2021/04/22 10:20:39;;;;;;;21.15;19.05;;;;;;;;;;6078772;29;20059;-77
2021/04/22 10:23:41;;;;;;;20.55;18.42;;;;;;;;;;6077235;29;20053;-77
2021/04/22 10:26:44;;;;;;;20.48;18.30;;;;;;;;;;6082383;29;20056;-78
2021/04/22 10:29:46;;;;;;;20.20;18.30;;;;;;;;;;6099022;29;20108;-78
2021/04/22 10:32:47;;;;;;;20.15;18.13;;;;;;;;;;6088073;29;20356;-77
2021/04/22 10:35:49;;;;;;;19.75;17.67;;;;;;;;;;6093545;29;20072;-77
2021/04/22 10:38:52;;;;;;;19.70;17.73;;;;;;;;;;6094271;29;20504;-77
2021/04/22 10:41:54;;;;;;;19.00;17.20;;;;;;;;;;6089208;29;20124;-77
2021/04/22 10:44:58;;;;;;;19.90;18.00;;;;;;;;;;6090758;29;20096;-78
2021/04/22 10:48:09;;;;;;;18.83;16.98;;;;;;;;;;6092237;29;20476;-78
2021/04/22 10:51:13;;;;;;;18.30;16.50;;;;;;;;;;6081820;29;20052;-78
2021/04/22 10:54:14;;;;;;;17.17;15.55;;;;;;;;;;6094766;29;20053;-80
2021/04/22 10:57:17;;;;;;;18.35;16.48;;;;;;;;;;6093333;29;20510;-77
2021/04/22 11:00:22;;;;;;;19.10;17.20;;;;;;;;;;6094910;29;20048;-78
2021/04/22 11:03:28;;;;;;;17.65;16.02;;;;;;;;;;6088567;29;20052;-79
2021/04/22 11:06:36;;;;;;;17.80;16.10;;;;;;;;;;6087840;29;20056;-77
2021/04/22 11:09:37;;;;;;;17.67;15.80;;;;;;;;;;6065493;29;20052;-76
2021/04/22 11:12:38;;;;;;;17.35;14.93;;;;;;;;;;6088724;29;20162;-77
2021/04/22 11:15:41;;;;;;;17.45;15.80;;;;;;;;;;6085084;29;20158;-78
2021/04/22 11:18:44;;;;;;;19.10;17.30;;;;;;;;;;6084933;29;20486;-78
2021/04/22 11:21:51;;;;;;;17.90;16.20;;;;;;;;;;6090384;29;20139;-77
2021/04/22 11:24:56;;;;;;;18.55;16.80;;;;;;;;;;6092664;29;20135;-77
2021/04/22 11:28:07;;;;;;;18.23;16.20;;;;;;;;;;6093095;29;20208;-76
2021/04/22 11:31:11;;;;;;;17.10;15.35;;;;;;;;;;6086062;29;20048;-78
2021/04/22 11:34:13;;;;;;;17.17;15.48;;;;;;;;;;6096783;29;20186;-78
2021/04/22 11:37:15;;;;;;;17.67;15.98;;;;;;;;;;6090340;29;20476;-78
2021/04/22 11:40:18;;;;;;;17.33;15.52;;;;;;;;;;6088855;29;20487;-79
2021/04/22 11:43:22;;;;;;;17.42;15.73;;;;;;;;;;6086807;29;20071;-75
2021/04/22 11:46:35;;;;;;;16.65;15.05;;;;;;;;;;6083929;29;20139;-74
2021/04/22 11:49:36;;;;;;;18.10;16.38;;;;;;;;;;6061582;29;20176;-74
2021/04/22 11:52:48;;;;;;;17.50;15.80;;;;;;;;;;6088819;29;20131;-74
2021/04/22 11:55:50;;;;;;;17.15;15.45;;;;;;;;;;6089704;29;20055;-74
2021/04/22 11:58:51;;;;;;;18.20;16.50;;;;;;;;;;6092313;29;20135;-73
2021/04/22 12:01:58;;;;;;;17.75;15.10;;;;;;;;;;6083558;29;20583;-73
2021/04/22 12:05:00;;;;;;;17.08;15.48;;;;;;;;;;6088323;29;20419;-73
2021/04/22 12:08:03;;;;;;;16.15;14.10;;;;;;;;;;6091635;29;20080;-73
2021/04/22 12:11:05;;;;;;;;;;;;;;;;;;6088336;29;20131;-72
2021/04/22 12:14:06;;;;;;;17.27;15.48;;;;;;;;;;6093397;29;19967;-73
2021/04/22 12:17:19;;;;;;;16.85;14.93;;;;;;;;;;6094273;29;20123;-72
2021/04/22 12:20:20;;;;;;;16.92;15.40;;;;;;;;;;6092473;29;20067;-72
2021/04/22 12:23:28;;;;;;;17.50;15.80;;;;;;;;;;6090460;29;20625;-73
2021/04/22 12:26:31;;;;;;;16.77;15.27;;;;;;;;;;6090457;29;20629;-72
2021/04/22 12:29:32;;;;;;;16.67;15.00;;;;;;;;;;6086339;29;20056;-73
2021/04/22 12:32:35;;;;;;;17.42;15.60;;;;;;;;;;6093919;29;20143;-73
2021/04/22 12:35:38;;;;;;;16.33;14.63;;;;;;;;;;6088892;29;20075;-73
2021/04/22 12:38:39;;;;;;;14.98;13.15;;;;;;;;;;6086125;29;20080;-72
2021/04/22 12:41:40;;;;;;;16.63;14.07;;;;;;;;;;6084596;29;20123;-71
2021/04/22 12:44:43;;;;;;;15.32;13.82;;;;;;;;;;6089766;29;20080;-73
2021/04/22 12:47:47;;;;;;;15.55;13.95;;;;;;;;;;6085951;29;20176;-72
2021/04/22 12:50:51;;;;;;;15.77;14.30;;;;;;;;;;6088736;29;20048;-73
2021/04/22 12:53:53;;;;;;;13.85;12.30;;;;;;;;;;6085604;29;20055;-71
2021/04/22 12:56:55;;;;;;;14.63;13.13;;;;;;;;;;6089805;29;20079;-72
2021/04/22 12:59:56;;;;;;;15.10;12.98;;;;;;;;;;6082665;29;20389;-72
2021/04/22 13:03:07;;;;;;;14.05;12.85;;;;;;;;;;6086011;29;20180;-71
2021/04/22 13:06:10;;;;;;;15.43;13.82;;;;;;;;;;6086303;29;20500;-72
2021/04/22 13:09:11;;;;;;;;;;;;;;;;;;6088667;29;20059;-72
2021/04/22 13:12:12;;;;;;;15.20;12.48;;;;;;;;;;6084281;29;19931;-71
2021/04/22 13:15:15;;;;;;;13.50;11.55;;;;;;;;;;6085180;29;20124;-72
2021/04/22 13:18:19;;;;;;;16.30;11.52;;;;;;;;;;6085808;29;20048;-73
2021/04/22 13:21:21;;;;;;;12.95;11.75;;;;;;;;;;6085778;29;20536;-73
2021/04/22 13:24:23;;;;;;;;;;;;;;;;;;6088512;29;20050;-73
2021/04/22 13:27:28;;;;;;;15.98;14.57;;;;;;;;;;6087370;29;19927;-72
2021/04/22 13:30:32;;;;;;;14.23;13.00;;;;;;;;;;6086600;29;20622;-72
2021/04/22 13:33:34;;;;;;;15.93;14.27;;;;;;;;;;6085628;29;20179;-73
2021/04/22 13:36:38;;;;;;;15.53;14.00;;;;;;;;;;6086342;29;20098;-72
2021/04/22 13:39:40;;;;;;;15.20;13.70;;;;;;;;;;6085413;29;20067;-72
2021/04/22 13:42:44;;;;;;;14.98;13.57;;;;;;;;;;6083233;29;20134;-74
2021/04/22 13:45:46;;;;;;;14.00;12.70;;;;;;;;;;6086427;29;20139;-72
2021/04/22 13:48:55;;;;;;;14.17;12.97;;;;;;;;;;6090044;29;20563;-74
2021/04/22 13:52:03;;;;;;;17.50;15.80;;;;;;;;;;6089757;29;20512;-73
2021/04/22 13:55:07;;;;;;;16.10;14.60;;;;;;;;;;6083528;29;20094;-73
2021/04/22 13:58:08;;;;;;;16.48;14.93;;;;;;;;;;6078604;29;20052;-72
2021/04/22 14:01:20;;;;;;;17.75;15.82;;;;;;;;;;6082163;29;20136;-71
2021/04/22 14:04:22;;;;;;;18.42;15.75;;;;;;;;;;6088989;29;20131;-73
2021/04/22 14:07:26;;;;;;;15.70;14.23;;;;;;;;;;6097822;29;20082;-72
2021/04/22 14:10:27;;;;;;;;;;;;;;;;;;6094679;29;20190;-72
2021/04/22 14:13:30;;;;;;;14.93;13.52;;;;;;;;;;6092185;29;20344;-73
2021/04/22 14:16:31;;;;;;;;;;;;;;;;;;6082172;29;20740;-73
2021/04/22 14:19:34;;;;;;;15.88;14.38;;;;;;;;;;6075921;29;19923;-73
2021/04/22 14:22:35;;;;;;;15.63;14.02;;;;;;;;;;6079281;29;20249;-73
2021/04/22 14:25:36;;;;;;;12.77;11.43;;;;;;;;;;6087242;29;20048;-74
2021/04/22 14:28:38;;;;;;;13.88;12.57;;;;;;;;;;6084446;29;20055;-73
2021/04/22 14:31:39;;;;;;;14.93;13.52;;;;;;;;;;6079598;29;20131;-73
2021/04/22 14:34:41;;;;;;;14.90;13.40;;;;;;;;;;6079129;29;20150;-73
2021/04/22 14:37:42;;;;;;;15.20;13.80;;;;;;;;;;6079550;29;20071;-73
2021/04/22 14:40:43;;;;;;;14.80;13.50;;;;;;;;;;6077284;29;20052;-73
2021/04/22 14:43:44;;;;;;;14.15;12.88;;;;;;;;;;6079060;29;20115;-72
2021/04/22 14:46:46;;;;;;;14.38;12.77;;;;;;;;;;6084865;29;20151;-73
2021/04/22 14:49:48;;;;;;;16.17;14.32;;;;;;;;;;6079753;29;20564;-73
2021/04/22 14:52:49;;;;;;;14.33;12.93;;;;;;;;;;6081022;29;20072;-73
2021/04/22 14:55:50;;;;;;;14.85;13.35;;;;;;;;;;6090925;29;20529;-73
2021/04/22 14:58:52;;;;;;;14.18;12.85;;;;;;;;;;6091349;29;20151;-72
2021/04/22 15:01:53;;;;;;;12.90;11.70;;;;;;;;;;6088690;29;20083;-73
2021/04/22 15:04:55;;;;;;;14.38;12.98;;;;;;;;;;6087068;29;20259;-73
2021/04/22 15:07:56;;;;;;;13.85;12.65;;;;;;;;;;6094294;29;20629;-73
2021/04/22 15:10:57;;;;;;;14.85;13.40;;;;;;;;;;6095303;29;20458;-73
2021/04/22 15:13:58;;;;;;;14.90;13.50;;;;;;;;;;6090768;29;20138;-73
2021/04/22 15:16:59;;;;;;;15.43;14.00;;;;;;;;;;6092023;29;20079;-74
2021/04/22 15:20:02;;;;;;;14.38;13.07;;;;;;;;;;6092035;29;22220;-73
2021/04/22 15:23:05;;;;;;;15.10;13.68;;;;;;;;;;6087208;29;20147;-74
2021/04/22 15:26:06;;;;;;;13.48;12.13;;;;;;;;;;6089655;29;20136;-72
2021/04/22 15:29:08;;;;;;;15.70;13.93;;;;;;;;;;6091610;29;20518;-73
2021/04/22 15:32:09;;;;;;;14.55;13.15;;;;;;;;;;6092430;29;20072;-72
2021/04/22 15:35:12;;;;;;;15.30;13.27;;;;;;;;;;6086677;29;20898;-73
2021/04/22 15:38:14;;;;;;;16.02;14.57;;;;;;;;;;6091664;29;20464;-74
2021/04/22 15:41:15;;;;;;;15.75;14.25;;;;;;;;;;6085969;29;20056;-73
2021/04/22 15:44:16;;;;;;;15.30;13.70;;;;;;;;;;6090918;29;20043;-73
2021/04/22 15:47:17;;;;;;;16.05;14.40;;;;;;;;;;6089138;29;20438;-72
2021/04/22 15:50:22;;;;;;;15.15;13.65;;;;;;;;;;6085442;29;20079;-73
2021/04/22 15:53:23;;;;;;;16.17;14.57;;;;;;;;;;6089932;29;20176;-72
2021/04/22 15:56:24;;;;;;;15.80;14.20;;;;;;;;;;6091024;29;20135;-73
2021/04/22 15:59:25;;;;;;;16.88;15.07;;;;;;;;;;6088145;29;20056;-72
2021/04/22 16:02:26;;;;;;;15.45;13.82;;;;;;;;;;6086504;29;20077;-72
2021/04/22 16:05:28;;;;;;;17.67;15.27;;;;;;;;;;6086218;29;20624;-73
2021/04/22 16:08:29;;;;;;;17.35;15.73;;;;;;;;;;6088080;29;20176;-73
2021/04/22 16:11:30;;;;;;;18.60;16.88;;;;;;;;;;6089103;29;20051;-73
2021/04/22 16:14:32;;;;;;;18.77;15.70;;;;;;;;;;6086733;29;20091;-72
2021/04/22 16:17:33;;;;;;;17.65;15.85;;;;;;;;;;6084398;29;20139;-72
2021/04/22 16:20:35;;;;;;;17.10;15.40;;;;;;;;;;6085631;29;20143;-72
2021/04/22 16:23:37;;;;;;;16.67;14.93;;;;;;;;;;6058884;29;20086;-71
2021/04/22 16:26:41;;;;;;;17.55;15.75;;;;;;;;;;6082851;29;20059;-71
2021/04/22 16:29:42;;;;;;;17.90;15.13;;;;;;;;;;6087067;29;20151;-73
2021/04/22 16:32:45;;;;;;;19.50;15.40;;;;;;;;;;6087935;29;20080;-73
2021/04/22 16:35:47;;;;;;;19.77;16.77;;;;;;;;;;6086008;29;20527;-72
2021/04/22 16:38:49;;;;;;;18.17;15.93;;;;;;;;;;6087675;29;20508;-72
2021/04/22 16:41:50;;;;;;;18.05;16.15;;;;;;;;;;6086682;29;20523;-72
2021/04/22 16:44:51;;;;;;;17.55;15.75;;;;;;;;;;6088496;29;20139;-72
2021/04/22 16:47:52;;;;;;;17.95;14.77;;;;;;;;;;6091349;29;20056;-72
2021/04/22 16:50:54;;;;;;;19.98;15.75;;;;;;;;;;6087884;29;20528;-72
2021/04/22 16:53:55;;;;;;;17.52;15.00;;;;;;;;;;6083337;29;20048;-72
2021/04/22 16:57:00;;;;;;;19.95;17.15;;;;;;;;;;6092174;29;20075;-72
2021/04/22 17:00:03;;;;;;;18.42;16.55;;;;;;;;;;6085891;29;20087;-73
2021/04/22 17:03:06;;;;;;;21.00;18.13;;;;;;;;;;6088709;29;20504;-73
2021/04/22 17:06:08;;;;;;;19.67;16.45;;;;;;;;;;6091612;29;20059;-72
2021/04/22 17:09:09;;;;;;;19.33;16.73;;;;;;;;;;6090533;29;20143;-73
2021/04/22 17:12:11;;;;;;;20.00;17.90;;;;;;;;;;6089010;29;20075;-74
2021/04/22 17:15:13;;;;;;;22.50;19.45;;;;;;;;;;6088456;29;20119;-73
2021/04/22 17:18:14;;;;;;;22.05;18.25;;;;;;;;;;6088463;29;20553;-73
2021/04/22 17:21:19;;;;;;;21.92;19.60;;;;;;;;;;6079046;29;20157;-73
2021/04/22 17:24:20;;;;;;;20.83;16.85;;;;;;;;;;6089375;29;20163;-72
2021/04/22 17:27:23;;;;;;;21.45;17.80;;;;;;;;;;6087454;29;20150;-72
2021/04/22 17:30:25;;;;;;;21.35;18.60;;;;;;;;;;6091811;29;20048;-72
2021/04/22 17:33:26;;;;;;;19.85;17.75;;;;;;;;;;6088283;29;20134;-73
2021/04/22 17:36:28;;;;;;;19.33;17.23;;;;;;;;;;6086998;29;20078;-73
2021/04/22 17:39:30;;;;;;;22.25;17.52;;;;;;;;;;6086690;29;20081;-72
2021/04/22 17:42:31;;;;;;;20.85;17.40;;;;;;;;;;6085284;29;20091;-73